sensor_id;sensor_type;location;lat;lon;timestamp;P1;durP1;ratioP1;P2;durP2;ratioP2
23302;SDS011;11820;48.738;9.092;2024-03-08T00:01:05;27.90;;;18.40;;
23302;SDS011;11820;48.738;9.092;2024-03-08T00:03:31;26.03;;;18.97;;
23302;SDS011;11820;48.738;9.092;2024-03-08T00:05:57;27.47;;;19.17;;
23302;SDS011;11820;48.738;9.092;2024-03-08T00:08:23;25.33;;;18.97;;
23302;SDS011;11820;48.738;9.092;2024-03-08T00:10:48;26.13;;;19.73;;
23302;SDS011;11820;48.738;9.092;2024-03-08T00:13:14;26.50;;;19.23;;
23302;SDS011;11820;48.738;9.092;2024-03-08T00:15:39;28.30;;;19.93;;
23302;SDS011;11820;48.738;9.092;2024-03-08T00:18:06;24.87;;;19.97;;
23302;SDS011;11820;48.738;9.092;2024-03-08T00:20:31;25.83;;;19.70;;
23302;SDS011;11820;48.738;9.092;2024-03-08T00:22:57;25.97;;;19.70;;
23302;SDS011;11820;48.738;9.092;2024-03-08T00:25:23;24.50;;;19.17;;
23302;SDS011;11820;48.738;9.092;2024-03-08T00:27:48;26.53;;;18.43;;
23302;SDS011;11820;48.738;9.092;2024-03-08T00:30:14;25.23;;;19.67;;
23302;SDS011;11820;48.738;9.092;2024-03-08T00:32:40;26.43;;;19.77;;
23302;SDS011;11820;48.738;9.092;2024-03-08T00:35:05;27.70;;;20.40;;
23302;SDS011;11820;48.738;9.092;2024-03-08T00:37:32;25.10;;;19.47;;
23302;SDS011;11820;48.738;9.092;2024-03-08T00:39:59;26.13;;;18.83;;
23302;SDS011;11820;48.738;9.092;2024-03-08T00:42:24;24.27;;;19.07;;
23302;SDS011;11820;48.738;9.092;2024-03-08T00:44:50;25.73;;;18.70;;
23302;SDS011;11820;48.738;9.092;2024-03-08T00:47:16;25.90;;;19.80;;
23302;SDS011;11820;48.738;9.092;2024-03-08T00:49:42;25.13;;;19.13;;
23302;SDS011;11820;48.738;9.092;2024-03-08T00:52:07;23.37;;;18.57;;
23302;SDS011;11820;48.738;9.092;2024-03-08T00:54:33;27.50;;;19.37;;
23302;SDS011;11820;48.738;9.092;2024-03-08T00:56:59;28.87;;;19.77;;
23302;SDS011;11820;48.738;9.092;2024-03-08T00:59:28;27.57;;;19.90;;
23302;SDS011;11820;48.738;9.092;2024-03-08T01:01:53;23.90;;;18.50;;
23302;SDS011;11820;48.738;9.092;2024-03-08T01:04:19;26.93;;;18.50;;
23302;SDS011;11820;48.738;9.092;2024-03-08T01:06:46;26.70;;;19.53;;
23302;SDS011;11820;48.738;9.092;2024-03-08T01:09:12;25.00;;;18.67;;
23302;SDS011;11820;48.738;9.092;2024-03-08T01:11:38;24.40;;;18.70;;
23302;SDS011;11820;48.738;9.092;2024-03-08T01:14:03;24.67;;;17.73;;
23302;SDS011;11820;48.738;9.092;2024-03-08T01:16:28;23.87;;;18.27;;
23302;SDS011;11820;48.738;9.092;2024-03-08T01:18:54;22.73;;;18.57;;
23302;SDS011;11820;48.738;9.092;2024-03-08T01:21:19;25.90;;;18.73;;
23302;SDS011;11820;48.738;9.092;2024-03-08T01:23:44;24.03;;;18.63;;
23302;SDS011;11820;48.738;9.092;2024-03-08T01:26:10;25.13;;;17.97;;
23302;SDS011;11820;48.738;9.092;2024-03-08T01:28:36;26.93;;;18.77;;
23302;SDS011;11820;48.738;9.092;2024-03-08T01:31:01;25.47;;;19.03;;
23302;SDS011;11820;48.738;9.092;2024-03-08T01:33:28;23.00;;;18.17;;
23302;SDS011;11820;48.738;9.092;2024-03-08T01:35:53;24.43;;;19.30;;
23302;SDS011;11820;48.738;9.092;2024-03-08T01:38:19;22.73;;;18.47;;
23302;SDS011;11820;48.738;9.092;2024-03-08T01:40:48;25.50;;;17.87;;
23302;SDS011;11820;48.738;9.092;2024-03-08T01:43:20;25.93;;;17.77;;
23302;SDS011;11820;48.738;9.092;2024-03-08T01:45:53;27.10;;;18.03;;
23302;SDS011;11820;48.738;9.092;2024-03-08T01:48:19;22.53;;;18.13;;
23302;SDS011;11820;48.738;9.092;2024-03-08T01:50:48;27.97;;;19.73;;
23302;SDS011;11820;48.738;9.092;2024-03-08T01:53:14;25.80;;;18.27;;
23302;SDS011;11820;48.738;9.092;2024-03-08T01:55:40;26.47;;;19.63;;
23302;SDS011;11820;48.738;9.092;2024-03-08T01:58:07;24.23;;;19.30;;
23302;SDS011;11820;48.738;9.092;2024-03-08T02:00:35;28.97;;;20.17;;
23302;SDS011;11820;48.738;9.092;2024-03-08T02:03:01;26.60;;;19.30;;
23302;SDS011;11820;48.738;9.092;2024-03-08T02:05:27;26.07;;;19.47;;
23302;SDS011;11820;48.738;9.092;2024-03-08T02:07:52;27.63;;;19.07;;
23302;SDS011;11820;48.738;9.092;2024-03-08T02:10:18;24.70;;;18.30;;
23302;SDS011;11820;48.738;9.092;2024-03-08T02:12:44;27.70;;;18.90;;
23302;SDS011;11820;48.738;9.092;2024-03-08T02:15:11;24.17;;;18.43;;
23302;SDS011;11820;48.738;9.092;2024-03-08T02:17:37;22.73;;;18.10;;
23302;SDS011;11820;48.738;9.092;2024-03-08T02:20:02;22.13;;;17.63;;
23302;SDS011;11820;48.738;9.092;2024-03-08T02:22:30;21.30;;;17.67;;
23302;SDS011;11820;48.738;9.092;2024-03-08T02:24:55;24.23;;;18.20;;
23302;SDS011;11820;48.738;9.092;2024-03-08T02:27:25;24.47;;;17.70;;
23302;SDS011;11820;48.738;9.092;2024-03-08T02:29:50;22.47;;;16.83;;
23302;SDS011;11820;48.738;9.092;2024-03-08T02:32:20;21.93;;;17.07;;
23302;SDS011;11820;48.738;9.092;2024-03-08T02:34:46;23.93;;;17.43;;
23302;SDS011;11820;48.738;9.092;2024-03-08T02:37:11;28.60;;;18.17;;
23302;SDS011;11820;48.738;9.092;2024-03-08T02:39:36;22.70;;;16.97;;
23302;SDS011;11820;48.738;9.092;2024-03-08T02:42:02;21.33;;;16.13;;
23302;SDS011;11820;48.738;9.092;2024-03-08T02:44:27;19.37;;;15.80;;
23302;SDS011;11820;48.738;9.092;2024-03-08T02:46:52;20.80;;;16.57;;
23302;SDS011;11820;48.738;9.092;2024-03-08T02:49:20;20.57;;;16.67;;
23302;SDS011;11820;48.738;9.092;2024-03-08T02:51:45;22.87;;;16.70;;
23302;SDS011;11820;48.738;9.092;2024-03-08T02:54:11;21.70;;;17.13;;
23302;SDS011;11820;48.738;9.092;2024-03-08T02:56:36;23.03;;;17.27;;
23302;SDS011;11820;48.738;9.092;2024-03-08T02:59:02;20.67;;;16.73;;
23302;SDS011;11820;48.738;9.092;2024-03-08T03:01:27;21.10;;;16.70;;
23302;SDS011;11820;48.738;9.092;2024-03-08T03:03:53;22.80;;;15.90;;
23302;SDS011;11820;48.738;9.092;2024-03-08T03:06:18;22.17;;;16.40;;
23302;SDS011;11820;48.738;9.092;2024-03-08T03:08:46;21.63;;;16.47;;
23302;SDS011;11820;48.738;9.092;2024-03-08T03:11:11;21.20;;;16.60;;
23302;SDS011;11820;48.738;9.092;2024-03-08T03:13:38;21.03;;;15.80;;
23302;SDS011;11820;48.738;9.092;2024-03-08T03:16:04;21.23;;;15.87;;
23302;SDS011;11820;48.738;9.092;2024-03-08T03:18:29;22.30;;;17.10;;
23302;SDS011;11820;48.738;9.092;2024-03-08T03:20:55;20.83;;;15.90;;
23302;SDS011;11820;48.738;9.092;2024-03-08T03:23:21;21.37;;;16.60;;
23302;SDS011;11820;48.738;9.092;2024-03-08T03:25:46;23.47;;;17.80;;
23302;SDS011;11820;48.738;9.092;2024-03-08T03:28:11;24.17;;;16.30;;
23302;SDS011;11820;48.738;9.092;2024-03-08T03:30:42;22.83;;;16.97;;
23302;SDS011;11820;48.738;9.092;2024-03-08T03:33:09;22.07;;;16.20;;
23302;SDS011;11820;48.738;9.092;2024-03-08T03:35:35;21.63;;;16.77;;
23302;SDS011;11820;48.738;9.092;2024-03-08T03:38:01;20.03;;;16.77;;
23302;SDS011;11820;48.738;9.092;2024-03-08T03:40:30;21.83;;;16.77;;
23302;SDS011;11820;48.738;9.092;2024-03-08T03:42:56;22.60;;;16.40;;
23302;SDS011;11820;48.738;9.092;2024-03-08T03:45:22;20.43;;;16.43;;
23302;SDS011;11820;48.738;9.092;2024-03-08T03:47:47;21.33;;;16.23;;
23302;SDS011;11820;48.738;9.092;2024-03-08T03:50:13;24.03;;;17.70;;
23302;SDS011;11820;48.738;9.092;2024-03-08T03:52:38;23.20;;;17.07;;
23302;SDS011;11820;48.738;9.092;2024-03-08T03:55:04;20.70;;;15.73;;
23302;SDS011;11820;48.738;9.092;2024-03-08T03:57:30;21.30;;;17.00;;
23302;SDS011;11820;48.738;9.092;2024-03-08T03:59:56;20.07;;;16.40;;
23302;SDS011;11820;48.738;9.092;2024-03-08T04:02:23;22.10;;;17.80;;
23302;SDS011;11820;48.738;9.092;2024-03-08T04:04:49;22.30;;;16.97;;
23302;SDS011;11820;48.738;9.092;2024-03-08T04:07:14;25.00;;;17.60;;
23302;SDS011;11820;48.738;9.092;2024-03-08T04:09:40;23.13;;;16.73;;
23302;SDS011;11820;48.738;9.092;2024-03-08T04:12:05;23.33;;;17.53;;
23302;SDS011;11820;48.738;9.092;2024-03-08T04:14:32;22.10;;;16.27;;
23302;SDS011;11820;48.738;9.092;2024-03-08T04:16:57;21.17;;;16.50;;
23302;SDS011;11820;48.738;9.092;2024-03-08T04:19:23;22.10;;;16.87;;
23302;SDS011;11820;48.738;9.092;2024-03-08T04:21:49;25.67;;;18.00;;
23302;SDS011;11820;48.738;9.092;2024-03-08T04:24:14;22.70;;;16.33;;
23302;SDS011;11820;48.738;9.092;2024-03-08T04:26:42;24.07;;;17.90;;
23302;SDS011;11820;48.738;9.092;2024-03-08T04:29:07;24.70;;;18.27;;
23302;SDS011;11820;48.738;9.092;2024-03-08T04:31:32;22.43;;;18.30;;
23302;SDS011;11820;48.738;9.092;2024-03-08T04:34:04;23.50;;;17.37;;
23302;SDS011;11820;48.738;9.092;2024-03-08T04:36:30;23.67;;;17.90;;
23302;SDS011;11820;48.738;9.092;2024-03-08T04:38:55;21.33;;;17.10;;
23302;SDS011;11820;48.738;9.092;2024-03-08T04:41:20;22.90;;;17.90;;
23302;SDS011;11820;48.738;9.092;2024-03-08T04:43:46;23.40;;;18.07;;
23302;SDS011;11820;48.738;9.092;2024-03-08T04:46:11;24.50;;;18.83;;
23302;SDS011;11820;48.738;9.092;2024-03-08T04:48:37;26.23;;;18.97;;
23302;SDS011;11820;48.738;9.092;2024-03-08T04:51:02;26.13;;;19.20;;
23302;SDS011;11820;48.738;9.092;2024-03-08T04:53:29;23.73;;;17.93;;
23302;SDS011;11820;48.738;9.092;2024-03-08T04:55:54;23.07;;;17.70;;
23302;SDS011;11820;48.738;9.092;2024-03-08T04:58:22;22.50;;;17.57;;
23302;SDS011;11820;48.738;9.092;2024-03-08T05:00:48;24.10;;;17.87;;
23302;SDS011;11820;48.738;9.092;2024-03-08T05:03:14;21.87;;;17.53;;
23302;SDS011;11820;48.738;9.092;2024-03-08T05:05:39;26.20;;;17.53;;
23302;SDS011;11820;48.738;9.092;2024-03-08T05:08:04;25.37;;;18.67;;
23302;SDS011;11820;48.738;9.092;2024-03-08T05:10:30;25.87;;;17.67;;
23302;SDS011;11820;48.738;9.092;2024-03-08T05:12:55;21.90;;;17.57;;
23302;SDS011;11820;48.738;9.092;2024-03-08T05:15:21;26.40;;;19.17;;
23302;SDS011;11820;48.738;9.092;2024-03-08T05:17:46;25.10;;;18.37;;
23302;SDS011;11820;48.738;9.092;2024-03-08T05:20:12;25.13;;;18.57;;
23302;SDS011;11820;48.738;9.092;2024-03-08T05:22:38;24.57;;;18.13;;
23302;SDS011;11820;48.738;9.092;2024-03-08T05:25:05;23.57;;;18.63;;
23302;SDS011;11820;48.738;9.092;2024-03-08T05:27:33;27.10;;;19.47;;
23302;SDS011;11820;48.738;9.092;2024-03-08T05:29:58;23.10;;;18.87;;
23302;SDS011;11820;48.738;9.092;2024-03-08T05:32:23;26.27;;;18.67;;
23302;SDS011;11820;48.738;9.092;2024-03-08T05:34:49;23.47;;;19.03;;
23302;SDS011;11820;48.738;9.092;2024-03-08T05:37:15;25.63;;;20.40;;
23302;SDS011;11820;48.738;9.092;2024-03-08T05:39:40;24.50;;;17.73;;
23302;SDS011;11820;48.738;9.092;2024-03-08T05:42:06;24.97;;;19.00;;
23302;SDS011;11820;48.738;9.092;2024-03-08T05:44:33;24.60;;;19.20;;
23302;SDS011;11820;48.738;9.092;2024-03-08T05:46:59;23.47;;;18.47;;
23302;SDS011;11820;48.738;9.092;2024-03-08T05:49:24;25.30;;;18.73;;
23302;SDS011;11820;48.738;9.092;2024-03-08T05:51:50;25.57;;;19.60;;
23302;SDS011;11820;48.738;9.092;2024-03-08T05:54:16;24.50;;;18.70;;
23302;SDS011;11820;48.738;9.092;2024-03-08T05:56:41;25.47;;;18.23;;
23302;SDS011;11820;48.738;9.092;2024-03-08T05:59:08;26.43;;;20.07;;
23302;SDS011;11820;48.738;9.092;2024-03-08T06:01:34;27.60;;;19.63;;
23302;SDS011;11820;48.738;9.092;2024-03-08T06:04:01;26.03;;;19.33;;
23302;SDS011;11820;48.738;9.092;2024-03-08T06:06:27;26.73;;;19.27;;
23302;SDS011;11820;48.738;9.092;2024-03-08T06:08:53;22.83;;;18.63;;
23302;SDS011;11820;48.738;9.092;2024-03-08T06:11:19;23.73;;;18.77;;
23302;SDS011;11820;48.738;9.092;2024-03-08T06:13:45;25.13;;;18.60;;
23302;SDS011;11820;48.738;9.092;2024-03-08T06:16:11;25.10;;;18.93;;
23302;SDS011;11820;48.738;9.092;2024-03-08T06:18:39;23.67;;;18.37;;
23302;SDS011;11820;48.738;9.092;2024-03-08T06:21:08;27.53;;;20.03;;
23302;SDS011;11820;48.738;9.092;2024-03-08T06:23:40;24.87;;;19.30;;
23302;SDS011;11820;48.738;9.092;2024-03-08T06:26:05;25.03;;;18.47;;
23302;SDS011;11820;48.738;9.092;2024-03-08T06:28:30;27.23;;;20.20;;
23302;SDS011;11820;48.738;9.092;2024-03-08T06:30:57;25.67;;;18.87;;
23302;SDS011;11820;48.738;9.092;2024-03-08T06:33:25;25.73;;;19.37;;
23302;SDS011;11820;48.738;9.092;2024-03-08T06:35:51;24.53;;;18.77;;
23302;SDS011;11820;48.738;9.092;2024-03-08T06:38:17;31.23;;;19.97;;
23302;SDS011;11820;48.738;9.092;2024-03-08T06:40:43;27.20;;;20.37;;
23302;SDS011;11820;48.738;9.092;2024-03-08T06:43:08;25.17;;;19.83;;
23302;SDS011;11820;48.738;9.092;2024-03-08T06:45:36;29.40;;;20.50;;
23302;SDS011;11820;48.738;9.092;2024-03-08T06:48:02;25.00;;;19.03;;
23302;SDS011;11820;48.738;9.092;2024-03-08T06:50:28;26.67;;;19.83;;
23302;SDS011;11820;48.738;9.092;2024-03-08T06:52:53;27.70;;;20.47;;
23302;SDS011;11820;48.738;9.092;2024-03-08T06:55:19;25.70;;;21.03;;
23302;SDS011;11820;48.738;9.092;2024-03-08T06:57:45;28.17;;;20.63;;
23302;SDS011;11820;48.738;9.092;2024-03-08T07:00:10;27.00;;;20.20;;
23302;SDS011;11820;48.738;9.092;2024-03-08T07:02:38;25.23;;;20.27;;
23302;SDS011;11820;48.738;9.092;2024-03-08T07:05:05;26.73;;;19.90;;
23302;SDS011;11820;48.738;9.092;2024-03-08T07:07:31;26.23;;;20.23;;
23302;SDS011;11820;48.738;9.092;2024-03-08T07:09:57;24.80;;;19.87;;
23302;SDS011;11820;48.738;9.092;2024-03-08T07:12:22;25.77;;;19.20;;
23302;SDS011;11820;48.738;9.092;2024-03-08T07:14:48;31.20;;;21.13;;
23302;SDS011;11820;48.738;9.092;2024-03-08T07:17:13;25.83;;;20.43;;
23302;SDS011;11820;48.738;9.092;2024-03-08T07:19:39;26.27;;;20.53;;
23302;SDS011;11820;48.738;9.092;2024-03-08T07:22:04;26.13;;;19.70;;
23302;SDS011;11820;48.738;9.092;2024-03-08T07:24:33;26.83;;;19.60;;
23302;SDS011;11820;48.738;9.092;2024-03-08T07:27:19;27.57;;;19.83;;
23302;SDS011;11820;48.738;9.092;2024-03-08T07:29:45;26.27;;;19.67;;
23302;SDS011;11820;48.738;9.092;2024-03-08T07:32:11;27.83;;;20.00;;
23302;SDS011;11820;48.738;9.092;2024-03-08T07:34:50;26.83;;;18.73;;
23302;SDS011;11820;48.738;9.092;2024-03-08T07:37:16;23.97;;;18.23;;
23302;SDS011;11820;48.738;9.092;2024-03-08T07:39:42;25.83;;;18.57;;
23302;SDS011;11820;48.738;9.092;2024-03-08T07:42:08;25.67;;;20.20;;
23302;SDS011;11820;48.738;9.092;2024-03-08T07:44:35;26.67;;;19.80;;
23302;SDS011;11820;48.738;9.092;2024-03-08T07:47:00;27.83;;;19.60;;
23302;SDS011;11820;48.738;9.092;2024-03-08T07:49:25;24.70;;;19.07;;
23302;SDS011;11820;48.738;9.092;2024-03-08T07:51:51;26.50;;;19.80;;
23302;SDS011;11820;48.738;9.092;2024-03-08T07:54:16;25.30;;;19.47;;
23302;SDS011;11820;48.738;9.092;2024-03-08T07:56:42;28.63;;;20.00;;
23302;SDS011;11820;48.738;9.092;2024-03-08T07:59:07;24.60;;;20.80;;
23302;SDS011;11820;48.738;9.092;2024-03-08T08:01:33;24.33;;;18.07;;
23302;SDS011;11820;48.738;9.092;2024-03-08T08:03:59;27.23;;;19.33;;
23302;SDS011;11820;48.738;9.092;2024-03-08T08:06:26;23.60;;;18.80;;
23302;SDS011;11820;48.738;9.092;2024-03-08T08:08:51;25.70;;;19.80;;
23302;SDS011;11820;48.738;9.092;2024-03-08T08:11:17;25.50;;;20.27;;
23302;SDS011;11820;48.738;9.092;2024-03-08T08:13:42;24.20;;;19.13;;
23302;SDS011;11820;48.738;9.092;2024-03-08T08:16:08;24.33;;;19.33;;
23302;SDS011;11820;48.738;9.092;2024-03-08T08:18:36;25.73;;;19.33;;
23302;SDS011;11820;48.738;9.092;2024-03-08T08:21:02;26.97;;;19.67;;
23302;SDS011;11820;48.738;9.092;2024-03-08T08:23:27;24.53;;;19.23;;
23302;SDS011;11820;48.738;9.092;2024-03-08T08:25:54;23.83;;;18.20;;
23302;SDS011;11820;48.738;9.092;2024-03-08T08:28:20;27.37;;;19.77;;
23302;SDS011;11820;48.738;9.092;2024-03-08T08:30:46;23.57;;;17.87;;
23302;SDS011;11820;48.738;9.092;2024-03-08T08:33:11;25.67;;;18.20;;
23302;SDS011;11820;48.738;9.092;2024-03-08T08:35:37;21.60;;;17.57;;
23302;SDS011;11820;48.738;9.092;2024-03-08T08:38:03;22.13;;;18.40;;
23302;SDS011;11820;48.738;9.092;2024-03-08T08:40:29;23.97;;;17.53;;
23302;SDS011;11820;48.738;9.092;2024-03-08T08:42:57;24.57;;;17.53;;
23302;SDS011;11820;48.738;9.092;2024-03-08T08:45:23;22.57;;;17.57;;
23302;SDS011;11820;48.738;9.092;2024-03-08T08:47:48;23.90;;;18.80;;
23302;SDS011;11820;48.738;9.092;2024-03-08T08:50:14;21.13;;;16.63;;
23302;SDS011;11820;48.738;9.092;2024-03-08T08:52:41;22.40;;;17.03;;
23302;SDS011;11820;48.738;9.092;2024-03-08T08:55:08;22.60;;;17.03;;
23302;SDS011;11820;48.738;9.092;2024-03-08T08:57:34;20.80;;;16.30;;
23302;SDS011;11820;48.738;9.092;2024-03-08T09:00:00;21.73;;;17.03;;
23302;SDS011;11820;48.738;9.092;2024-03-08T09:02:26;23.30;;;17.57;;
23302;SDS011;11820;48.738;9.092;2024-03-08T09:04:51;22.07;;;17.00;;
23302;SDS011;11820;48.738;9.092;2024-03-08T09:07:17;27.57;;;17.97;;
23302;SDS011;11820;48.738;9.092;2024-03-08T09:09:44;21.90;;;17.20;;
23302;SDS011;11820;48.738;9.092;2024-03-08T09:12:09;23.63;;;17.60;;
23302;SDS011;11820;48.738;9.092;2024-03-08T09:14:38;21.73;;;16.83;;
23302;SDS011;11820;48.738;9.092;2024-03-08T09:17:07;20.33;;;15.90;;
23302;SDS011;11820;48.738;9.092;2024-03-08T09:19:35;19.47;;;16.70;;
23302;SDS011;11820;48.738;9.092;2024-03-08T09:22:01;20.03;;;15.97;;
23302;SDS011;11820;48.738;9.092;2024-03-08T09:24:29;21.47;;;15.93;;
23302;SDS011;11820;48.738;9.092;2024-03-08T09:26:54;20.13;;;15.80;;
23302;SDS011;11820;48.738;9.092;2024-03-08T09:29:20;21.27;;;16.03;;
23302;SDS011;11820;48.738;9.092;2024-03-08T09:31:45;18.83;;;16.17;;
23302;SDS011;11820;48.738;9.092;2024-03-08T09:34:14;21.13;;;15.53;;
23302;SDS011;11820;48.738;9.092;2024-03-08T09:36:39;23.40;;;16.90;;
23302;SDS011;11820;48.738;9.092;2024-03-08T09:39:06;20.90;;;17.00;;
23302;SDS011;11820;48.738;9.092;2024-03-08T09:41:32;22.27;;;16.27;;
23302;SDS011;11820;48.738;9.092;2024-03-08T09:43:59;19.97;;;16.13;;
23302;SDS011;11820;48.738;9.092;2024-03-08T09:46:25;19.67;;;15.97;;
23302;SDS011;11820;48.738;9.092;2024-03-08T09:48:52;19.00;;;15.40;;
23302;SDS011;11820;48.738;9.092;2024-03-08T09:51:18;21.63;;;16.07;;
23302;SDS011;11820;48.738;9.092;2024-03-08T09:53:51;22.37;;;16.57;;
23302;SDS011;11820;48.738;9.092;2024-03-08T09:56:16;21.17;;;16.37;;
23302;SDS011;11820;48.738;9.092;2024-03-08T09:58:42;21.80;;;16.97;;
23302;SDS011;11820;48.738;9.092;2024-03-08T10:01:22;23.57;;;17.23;;
23302;SDS011;11820;48.738;9.092;2024-03-08T10:03:48;24.57;;;17.60;;
23302;SDS011;11820;48.738;9.092;2024-03-08T10:06:14;23.23;;;15.90;;
23302;SDS011;11820;48.738;9.092;2024-03-08T10:08:39;22.20;;;17.13;;
23302;SDS011;11820;48.738;9.092;2024-03-08T10:11:04;21.03;;;17.17;;
23302;SDS011;11820;48.738;9.092;2024-03-08T10:13:30;21.33;;;16.77;;
23302;SDS011;11820;48.738;9.092;2024-03-08T10:15:57;20.97;;;15.60;;
23302;SDS011;11820;48.738;9.092;2024-03-08T10:18:22;21.53;;;17.20;;
23302;SDS011;11820;48.738;9.092;2024-03-08T10:21:04;23.73;;;15.70;;
23302;SDS011;11820;48.738;9.092;2024-03-08T10:23:35;22.97;;;18.20;;
23302;SDS011;11820;48.738;9.092;2024-03-08T10:26:17;20.10;;;17.20;;
23302;SDS011;11820;48.738;9.092;2024-03-08T10:28:46;22.60;;;16.50;;
23302;SDS011;11820;48.738;9.092;2024-03-08T10:31:13;21.07;;;16.63;;
23302;SDS011;11820;48.738;9.092;2024-03-08T10:33:42;22.27;;;16.30;;
23302;SDS011;11820;48.738;9.092;2024-03-08T10:36:09;19.27;;;15.70;;
23302;SDS011;11820;48.738;9.092;2024-03-08T10:38:37;22.77;;;16.93;;
23302;SDS011;11820;48.738;9.092;2024-03-08T10:41:10;17.97;;;15.83;;
23302;SDS011;11820;48.738;9.092;2024-03-08T10:48:57;19.97;;;16.07;;
23302;SDS011;11820;48.738;9.092;2024-03-08T10:51:27;20.13;;;16.07;;
23302;SDS011;11820;48.738;9.092;2024-03-08T10:53:55;20.60;;;16.10;;
23302;SDS011;11820;48.738;9.092;2024-03-08T10:56:22;24.17;;;17.30;;
23302;SDS011;11820;48.738;9.092;2024-03-08T10:58:47;20.90;;;15.87;;
23302;SDS011;11820;48.738;9.092;2024-03-08T11:01:14;20.00;;;15.40;;
23302;SDS011;11820;48.738;9.092;2024-03-08T11:06:05;20.93;;;15.70;;
23302;SDS011;11820;48.738;9.092;2024-03-08T11:08:35;20.00;;;15.77;;
23302;SDS011;11820;48.738;9.092;2024-03-08T11:11:01;22.20;;;15.97;;
23302;SDS011;11820;48.738;9.092;2024-03-08T11:15:59;17.67;;;14.40;;
23302;SDS011;11820;48.738;9.092;2024-03-08T11:18:26;19.90;;;15.63;;
23302;SDS011;11820;48.738;9.092;2024-03-08T11:20:54;19.27;;;14.73;;
23302;SDS011;11820;48.738;9.092;2024-03-08T11:23:22;18.33;;;15.50;;
23302;SDS011;11820;48.738;9.092;2024-03-08T11:25:48;18.13;;;15.27;;
23302;SDS011;11820;48.738;9.092;2024-03-08T11:28:21;18.10;;;15.07;;
23302;SDS011;11820;48.738;9.092;2024-03-08T11:33:34;19.60;;;13.93;;
23302;SDS011;11820;48.738;9.092;2024-03-08T11:38:47;20.83;;;16.40;;
23302;SDS011;11820;48.738;9.092;2024-03-08T11:41:18;18.30;;;14.67;;
23302;SDS011;11820;48.738;9.092;2024-03-08T11:43:45;16.03;;;14.33;;
23302;SDS011;11820;48.738;9.092;2024-03-08T11:46:12;27.50;;;14.67;;
23302;SDS011;11820;48.738;9.092;2024-03-08T11:48:39;19.07;;;15.47;;
23302;SDS011;11820;48.738;9.092;2024-03-08T11:51:07;16.97;;;14.13;;
23302;SDS011;11820;48.738;9.092;2024-03-08T11:53:32;16.70;;;13.80;;
23302;SDS011;11820;48.738;9.092;2024-03-08T11:56:07;15.50;;;13.33;;
23302;SDS011;11820;48.738;9.092;2024-03-08T11:58:34;18.33;;;14.73;;
23302;SDS011;11820;48.738;9.092;2024-03-08T12:01:08;15.53;;;13.53;;
23302;SDS011;11820;48.738;9.092;2024-03-08T12:03:39;16.70;;;13.97;;
23302;SDS011;11820;48.738;9.092;2024-03-08T12:06:04;14.67;;;13.17;;
23302;SDS011;11820;48.738;9.092;2024-03-08T12:08:30;14.93;;;13.00;;
23302;SDS011;11820;48.738;9.092;2024-03-08T12:10:57;16.53;;;13.80;;
23302;SDS011;11820;48.738;9.092;2024-03-08T12:13:34;16.67;;;14.23;;
23302;SDS011;11820;48.738;9.092;2024-03-08T12:16:00;16.20;;;13.30;;
23302;SDS011;11820;48.738;9.092;2024-03-08T12:18:29;14.37;;;12.87;;
23302;SDS011;11820;48.738;9.092;2024-03-08T12:23:47;15.20;;;13.60;;
23302;SDS011;11820;48.738;9.092;2024-03-08T12:26:16;16.07;;;14.30;;
23302;SDS011;11820;48.738;9.092;2024-03-08T12:28:43;16.73;;;14.93;;
23302;SDS011;11820;48.738;9.092;2024-03-08T12:31:13;19.63;;;14.33;;
23302;SDS011;11820;48.738;9.092;2024-03-08T12:36:17;16.63;;;14.83;;
23302;SDS011;11820;48.738;9.092;2024-03-08T12:38:45;17.37;;;14.87;;
23302;SDS011;11820;48.738;9.092;2024-03-08T12:41:14;15.77;;;13.53;;
23302;SDS011;11820;48.738;9.092;2024-03-08T12:43:42;15.90;;;14.30;;
23302;SDS011;11820;48.738;9.092;2024-03-08T12:46:07;16.03;;;14.33;;
23302;SDS011;11820;48.738;9.092;2024-03-08T12:48:36;15.93;;;14.23;;
23302;SDS011;11820;48.738;9.092;2024-03-08T12:51:05;20.57;;;15.00;;
23302;SDS011;11820;48.738;9.092;2024-03-08T12:53:34;17.63;;;15.37;;
23302;SDS011;11820;48.738;9.092;2024-03-08T12:55:59;17.47;;;15.53;;
23302;SDS011;11820;48.738;9.092;2024-03-08T12:58:25;16.40;;;13.97;;
23302;SDS011;11820;48.738;9.092;2024-03-08T13:00:51;16.50;;;14.70;;
23302;SDS011;11820;48.738;9.092;2024-03-08T13:03:17;17.57;;;15.40;;
23302;SDS011;11820;48.738;9.092;2024-03-08T13:05:42;17.83;;;15.93;;
23302;SDS011;11820;48.738;9.092;2024-03-08T13:08:08;17.43;;;15.53;;
23302;SDS011;11820;48.738;9.092;2024-03-08T13:10:41;18.43;;;15.87;;
23302;SDS011;11820;48.738;9.092;2024-03-08T13:13:08;17.83;;;15.27;;
23302;SDS011;11820;48.738;9.092;2024-03-08T13:15:35;18.67;;;15.93;;
23302;SDS011;11820;48.738;9.092;2024-03-08T13:18:01;18.10;;;15.73;;
23302;SDS011;11820;48.738;9.092;2024-03-08T13:20:26;17.60;;;15.80;;
23302;SDS011;11820;48.738;9.092;2024-03-08T13:22:53;18.40;;;15.27;;
23302;SDS011;11820;48.738;9.092;2024-03-08T13:25:18;19.40;;;15.90;;
23302;SDS011;11820;48.738;9.092;2024-03-08T13:27:45;21.57;;;17.30;;
23302;SDS011;11820;48.738;9.092;2024-03-08T13:30:11;18.37;;;16.30;;
23302;SDS011;11820;48.738;9.092;2024-03-08T13:32:41;17.67;;;15.57;;
23302;SDS011;11820;48.738;9.092;2024-03-08T13:35:10;20.37;;;16.77;;
23302;SDS011;11820;48.738;9.092;2024-03-08T13:37:42;19.07;;;16.07;;
23302;SDS011;11820;48.738;9.092;2024-03-08T13:40:08;21.67;;;16.63;;
23302;SDS011;11820;48.738;9.092;2024-03-08T13:42:41;20.07;;;16.57;;
23302;SDS011;11820;48.738;9.092;2024-03-08T13:45:08;19.47;;;16.50;;
23302;SDS011;11820;48.738;9.092;2024-03-08T13:47:40;18.60;;;16.00;;
23302;SDS011;11820;48.738;9.092;2024-03-08T13:50:06;18.27;;;15.70;;
23302;SDS011;11820;48.738;9.092;2024-03-08T13:52:38;17.17;;;15.30;;
23302;SDS011;11820;48.738;9.092;2024-03-08T13:55:05;18.83;;;15.60;;
23302;SDS011;11820;48.738;9.092;2024-03-08T13:57:31;20.93;;;15.43;;
23302;SDS011;11820;48.738;9.092;2024-03-08T13:59:57;19.03;;;15.93;;
23302;SDS011;11820;48.738;9.092;2024-03-08T14:02:23;17.03;;;15.13;;
23302;SDS011;11820;48.738;9.092;2024-03-08T14:04:52;17.13;;;14.87;;
23302;SDS011;11820;48.738;9.092;2024-03-08T14:07:19;20.03;;;15.87;;
23302;SDS011;11820;48.738;9.092;2024-03-08T14:09:44;19.13;;;16.00;;
23302;SDS011;11820;48.738;9.092;2024-03-08T14:12:10;20.83;;;16.73;;
23302;SDS011;11820;48.738;9.092;2024-03-08T14:14:35;21.30;;;16.30;;
23302;SDS011;11820;48.738;9.092;2024-03-08T14:17:01;23.37;;;16.50;;
23302;SDS011;11820;48.738;9.092;2024-03-08T14:19:27;19.77;;;15.47;;
23302;SDS011;11820;48.738;9.092;2024-03-08T14:21:53;19.83;;;15.27;;
23302;SDS011;11820;48.738;9.092;2024-03-08T14:24:19;20.13;;;15.53;;
23302;SDS011;11820;48.738;9.092;2024-03-08T14:26:45;19.30;;;15.70;;
23302;SDS011;11820;48.738;9.092;2024-03-08T14:29:11;17.40;;;14.83;;
23302;SDS011;11820;48.738;9.092;2024-03-08T14:31:37;20.03;;;15.70;;
23302;SDS011;11820;48.738;9.092;2024-03-08T14:34:03;18.63;;;15.73;;
23302;SDS011;11820;48.738;9.092;2024-03-08T14:36:29;16.77;;;14.63;;
23302;SDS011;11820;48.738;9.092;2024-03-08T14:38:55;17.87;;;15.43;;